Time;durP1;ratioP1;P1;durP2;ratioP2;P2;SDS_P1;SDS_P2;PMS_P1;PMS_P2;Temp;Humidity;BMP_temperature;BMP_pressure;BME280_temperature;BME280_humidity;BME280_pressure;Samples;Min_cycle;Max_cycle;Signal;HPM_P1;HPM_P2
2022/04/13 00:02:23;;;;;;;;;;;;;;;4.24;61.42;95448.69;5114474;28;992;-49
2022/04/13 00:04:50;;;;;;;;;;;;;;;4.11;60.54;95444.31;5115269;28;1076;-49
2022/04/13 00:07:16;;;;;;;;;;;;;;;3.76;61.56;95446.09;5097071;28;1993;-49
2022/04/13 00:09:43;;;;;;;;;;;;;;;3.93;62.50;95445.69;5097251;28;1468;-49
2022/04/13 00:12:10;;;;;;;;;;;;;;;3.97;62.08;95444.50;5097360;28;1507;-49
2022/04/13 00:14:36;;;;;;;;;;;;;;;3.82;62.17;95446.47;5115219;28;1945;-50
2022/04/13 00:17:03;;;;;;;;;;;;;;;3.69;61.99;95450.97;5113798;28;1122;-49
2022/04/13 00:19:29;;;;;;;;;;;;;;;3.61;62.14;95446.25;5114057;28;1696;-50
2022/04/13 00:21:56;;;;;;;;;;;;;;;3.75;62.24;95460.25;5114960;28;1087;-49
2022/04/13 00:24:22;;;;;;;;;;;;;;;3.79;62.05;95448.50;5114967;28;1511;-49
2022/04/13 00:26:48;;;;;;;;;;;;;;;3.49;62.59;95442.69;5114790;28;1904;-49
2022/04/13 00:29:15;;;;;;;;;;;;;;;3.38;62.97;95444.41;5114526;28;1223;-50
2022/04/13 00:31:41;;;;;;;;;;;;;;;3.31;62.60;95444.84;5114744;28;1041;-50
2022/04/13 00:34:07;;;;;;;;;;;;;;;3.44;62.98;95441.34;5113700;28;992;-49
2022/04/13 00:36:33;;;;;;;;;;;;;;;3.55;62.36;95435.25;5114675;28;1060;-49
2022/04/13 00:38:59;;;;;;;;;;;;;;;3.45;62.84;95430.66;5113356;28;1071;-49
2022/04/13 00:41:26;;;;;;;;;;;;;;;3.43;62.99;95437.81;5114548;28;1044;-49
2022/04/13 00:44:05;;;;;;;;;;;;;;;3.45;62.60;95435.09;5114484;28;1040;-49
2022/04/13 00:46:32;;;;;;;;;;;;;;;3.35;62.98;95434.06;5114451;28;1902;-51
2022/04/13 00:48:59;;;;;;;;;;;;;;;3.42;62.84;95435.31;5114463;28;1304;-49
2022/04/13 00:51:26;;;;;;;;;;;;;;;3.59;62.58;95448.16;5114475;28;1015;-49
2022/04/13 00:53:52;;;;;;;;;;;;;;;3.62;62.85;95450.56;5114951;28;1801;-49
2022/04/13 00:56:23;;;;;;;;;;;;;;;3.51;63.20;95439.94;5113951;28;1041;-50
2022/04/13 00:58:53;;;;;;;;;;;;;;;3.26;63.35;95433.78;5114606;28;1052;-49
2022/04/13 01:01:21;;;;;;;;;;;;;;;3.21;63.94;95443.00;5114351;28;1015;-49
2022/04/13 01:03:50;;;;;;;;;;;;;;;3.32;63.73;95427.22;5114264;28;1043;-49
2022/04/13 01:06:17;;;;;;;;;;;;;;;3.27;63.79;95435.44;5114107;28;1906;-49
2022/04/13 01:08:44;;;;;;;;;;;;;;;2.98;63.97;95436.66;5113086;28;1003;-49
2022/04/13 01:11:11;;;;;;;;;;;;;;;2.84;64.59;95429.72;5114335;28;1556;-49
2022/04/13 01:13:39;;;;;;;;;;;;;;;2.97;64.75;95435.00;5114122;28;1862;-49
2022/04/13 01:16:06;;;;;;;;;;;;;;;3.32;63.49;95435.16;5113002;28;1582;-50
2022/04/13 01:18:33;;;;;;;;;;;;;;;3.49;63.72;95433.91;5113985;27;1688;-48
2022/04/13 01:21:00;;;;;;;;;;;;;;;3.41;63.43;95436.25;5114097;28;961;-49
2022/04/13 01:23:27;;;;;;;;;;;;;;;3.32;63.25;95433.34;5113792;28;1032;-49
2022/04/13 01:25:54;;;;;;;;;;;;;;;3.03;63.92;95426.63;5114191;28;1914;-49
2022/04/13 01:28:20;;;;;;;;;;;;;;;2.82;64.85;95432.47;5114211;28;1027;-49
2022/04/13 01:30:47;;;;;;;;;;;;;;;2.68;65.09;95424.66;5113718;28;1160;-49
2022/04/13 01:33:13;;;;;;;;;;;;;;;2.79;64.63;95434.47;5112579;28;1020;-49
2022/04/13 01:35:40;;;;;;;;;;;;;;;2.87;64.69;95437.44;5114123;28;983;-49
2022/04/13 01:38:06;;;;;;;;;;;;;;;2.86;64.57;95439.22;5113658;28;1103;-49
2022/04/13 01:40:32;;;;;;;;;;;;;;;2.75;64.68;95444.41;5113739;28;1040;-50
2022/04/13 01:42:58;;;;;;;;;;;;;;;2.92;65.02;95443.22;5113781;28;1028;-49
2022/04/13 01:45:25;;;;;;;;;;;;;;;3.16;64.28;95445.09;5112465;28;1993;-49
2022/04/13 01:47:51;;;;;;;;;;;;;;;3.20;64.05;95446.56;5113706;28;1091;-49
2022/04/13 01:50:19;;;;;;;;;;;;;;;3.09;64.87;95453.47;5113668;28;913;-49
2022/04/13 01:52:46;;;;;;;;;;;;;;;3.07;64.79;95451.88;5113625;28;953;-49
2022/04/13 01:55:12;;;;;;;;;;;;;;;2.89;64.59;95446.94;5113695;28;1032;-49
2022/04/13 01:57:39;;;;;;;;;;;;;;;2.89;64.74;95439.00;5113892;28;1036;-49
2022/04/13 02:00:06;;;;;;;;;;;;;;;2.65;65.17;95431.00;5113806;28;1063;-49
2022/04/13 02:02:33;;;;;;;;;;;;;;;2.54;65.95;95431.75;5113944;28;1031;-49
2022/04/13 02:04:59;;;;;;;;;;;;;;;2.58;65.98;95432.38;5112469;28;2008;-49
2022/04/13 02:07:29;;;;;;;;;;;;;;;2.47;66.02;95427.84;5113713;28;1079;-49
2022/04/13 02:09:56;;;;;;;;;;;;;;;2.33;65.84;95434.06;5117803;28;957;-49
2022/04/13 02:12:22;;;;;;;;;;;;;;;2.50;65.82;95434.69;5116288;28;2418;-49
2022/04/13 02:14:48;;;;;;;;;;;;;;;2.79;65.38;95437.09;5117386;28;1959;-49
2022/04/13 02:17:16;;;;;;;;;;;;;;;2.88;65.46;95439.97;5116198;28;1025;-49
2022/04/13 02:19:43;;;;;;;;;;;;;;;2.80;64.90;95442.28;5117650;28;1059;-49
2022/04/13 02:22:09;;;;;;;;;;;;;;;2.75;64.78;95439.13;5117147;28;1135;-49
2022/04/13 02:24:36;;;;;;;;;;;;;;;2.58;65.03;95436.78;5117290;28;1080;-49
2022/04/13 02:27:02;;;;;;;;;;;;;;;2.43;66.28;95431.63;5116232;28;1973;-49
2022/04/13 02:29:28;;;;;;;;;;;;;;;2.55;66.42;95429.94;5115746;28;1278;-49
2022/04/13 02:31:54;;;;;;;;;;;;;;;2.61;66.09;95439.25;5116161;28;1037;-49
2022/04/13 02:34:21;;;;;;;;;;;;;;;2.45;65.77;95437.66;5117143;28;1036;-50
2022/04/13 02:36:47;;;;;;;;;;;;;;;2.48;66.02;95437.44;5116831;28;1021;-49
2022/04/13 02:39:13;;;;;;;;;;;;;;;2.63;66.04;95437.34;5116861;28;1079;-49
2022/04/13 02:41:40;;;;;;;;;;;;;;;2.60;66.13;95437.53;5117251;28;972;-49
2022/04/13 02:44:06;;;;;;;;;;;;;;;2.60;65.29;95434.91;5117022;28;1059;-49
2022/04/13 02:46:32;;;;;;;;;;;;;;;2.38;65.55;95444.28;5116830;28;1902;-49
2022/04/13 02:48:58;;;;;;;;;;;;;;;2.31;66.64;95435.09;5116718;28;1094;-49
2022/04/13 02:51:25;;;;;;;;;;;;;;;2.38;66.25;95440.81;5115628;28;1533;-49
2022/04/13 02:53:51;;;;;;;;;;;;;;;2.15;66.96;95437.94;5115487;28;1108;-49
2022/04/13 02:56:17;;;;;;;;;;;;;;;2.05;66.97;95442.09;5116614;28;1027;-49
2022/04/13 02:58:43;;;;;;;;;;;;;;;2.19;66.54;95441.22;5098886;28;977;-49
2022/04/13 03:01:09;;;;;;;;;;;;;;;2.29;66.96;95443.09;5116506;28;1016;-49
2022/04/13 03:03:35;;;;;;;;;;;;;;;2.25;66.51;95440.78;5116438;28;1114;-49
2022/04/13 03:06:02;;;;;;;;;;;;;;;2.14;66.87;95449.41;5116224;28;2026;-50
2022/04/13 03:08:28;;;;;;;;;;;;;;;2.16;67.33;95442.25;5115537;28;1023;-49
2022/04/13 03:10:54;;;;;;;;;;;;;;;2.38;66.69;95440.81;5116337;27;1091;-49
2022/04/13 03:13:20;;;;;;;;;;;;;;;2.62;66.10;95441.78;5116372;28;1027;-49
2022/04/13 03:15:46;;;;;;;;;;;;;;;2.48;66.00;95441.88;5116330;28;1016;-49
2022/04/13 03:18:12;;;;;;;;;;;;;;;2.11;66.54;95445.19;5116217;28;1056;-49
2022/04/13 03:20:38;;;;;;;;;;;;;;;2.01;67.26;95446.78;5115845;28;1089;-49
2022/04/13 03:23:04;;;;;;;;;;;;;;;2.08;67.43;95450.66;5116411;28;985;-49
2022/04/13 03:25:32;;;;;;;;;;;;;;;2.18;67.65;95442.16;5114817;28;1983;-49
2022/04/13 03:27:58;;;;;;;;;;;;;;;2.20;66.88;95442.88;5116148;28;969;-49
2022/04/13 03:30:24;;;;;;;;;;;;;;;2.00;67.71;95442.44;5115823;28;1107;-49
2022/04/13 03:32:51;;;;;;;;;;;;;;;2.11;67.62;95447.00;5116042;28;1048;-49
2022/04/13 03:35:17;;;;;;;;;;;;;;;1.92;67.35;95456.13;5116080;28;973;-49
2022/04/13 03:37:43;;;;;;;;;;;;;;;1.92;67.52;95463.19;5115984;28;2190;-49
2022/04/13 03:40:10;;;;;;;;;;;;;;;1.74;68.37;95471.34;5116006;28;1023;-49
2022/04/13 03:42:37;;;;;;;;;;;;;;;1.89;68.07;95461.59;5115877;28;1028;-49
2022/04/13 03:45:07;;;;;;;;;;;;;;;2.11;68.26;95470.75;5115729;28;1985;-49
2022/04/13 03:47:33;;;;;;;;;;;;;;;2.17;67.27;95472.13;5115896;28;933;-49
2022/04/13 03:49:58;;;;;;;;;;;;;;;2.00;67.00;95483.78;5115841;28;961;-49
2022/04/13 03:52:25;;;;;;;;;;;;;;;1.83;67.86;95484.91;5115437;28;1020;-49
2022/04/13 03:54:51;;;;;;;;;;;;;;;1.72;68.08;95490.84;5115596;28;1048;-49
2022/04/13 03:57:17;;;;;;;;;;;;;;;1.63;68.66;95484.41;5115588;28;953;-49
2022/04/13 03:59:43;;;;;;;;;;;;;;;1.74;68.52;95492.44;5114196;28;1012;-49
2022/04/13 04:02:09;;;;;;;;;;;;;;;1.91;67.96;95490.50;5115697;27;960;-49
2022/04/13 04:04:35;;;;;;;;;;;;;;;1.99;68.14;95493.47;5115479;28;941;-49
2022/04/13 04:07:02;;;;;;;;;;;;;;;2.07;67.63;95495.63;5115316;28;1917;-50
2022/04/13 04:09:28;;;;;;;;;;;;;;;2.08;67.86;95498.16;5115512;28;1075;-49
2022/04/13 04:11:54;;;;;;;;;;;;;;;2.19;67.64;95502.72;5115043;28;1048;-49
2022/04/13 04:14:20;;;;;;;;;;;;;;;2.25;67.37;95506.75;5115408;28;1043;-49
2022/04/13 04:16:46;;;;;;;;;;;;;;;2.17;67.98;95504.63;5115097;28;1099;-49
2022/04/13 04:19:12;;;;;;;;;;;;;;;2.25;68.15;95506.75;5114951;28;1083;-49
2022/04/13 04:21:38;;;;;;;;;;;;;;;2.38;67.37;95509.44;5114734;28;1083;-49
2022/04/13 04:24:04;;;;;;;;;;;;;;;2.42;67.31;95510.91;5115227;28;1023;-49
2022/04/13 04:26:30;;;;;;;;;;;;;;;2.59;66.59;95515.91;5114915;28;1906;-49
2022/04/13 04:28:56;;;;;;;;;;;;;;;2.72;66.66;95511.47;5114662;28;1147;-50
2022/04/13 04:34:22;;;;;;;;;;;;;;;3.97;63.38;95528.34;5091322;28;1439;-50
2022/04/13 04:36:48;;;;;;;;;;;;;;;4.42;61.93;95520.59;5114564;28;1102;-49
2022/04/13 04:39:14;;;;;;;;;;;;;;;4.79;61.00;95523.97;5113620;28;950;-50
2022/04/13 04:41:40;;;;;;;;;;;;;;;4.98;59.93;95525.22;5114567;28;1063;-50
2022/04/13 04:44:08;;;;;;;;;;;;;;;5.28;59.44;95533.44;5114537;28;989;-50
2022/04/13 04:46:34;;;;;;;;;;;;;;;5.75;57.91;95540.44;5114632;28;1992;-50
2022/04/13 04:49:01;;;;;;;;;;;;;;;5.57;58.45;95542.75;5114770;28;1003;-50
2022/04/13 04:51:27;;;;;;;;;;;;;;;6.25;57.02;95551.47;5113174;28;1032;-50
2022/04/13 04:53:54;;;;;;;;;;;;;;;7.35;54.50;95548.56;5114606;28;1003;-50
2022/04/13 04:56:20;;;;;;;;;;;;;;;8.58;51.20;95548.41;5114499;28;1056;-52
2022/04/13 04:58:46;;;;;;;;;;;;;;;8.88;50.14;95551.91;5114389;28;1007;-49
2022/04/13 05:01:12;;;;;;;;;;;;;;;8.76;50.80;95560.09;5114288;28;1069;-49
2022/04/13 05:03:38;;;;;;;;;;;;;;;8.70;50.77;95557.13;5114376;28;1027;-50
2022/04/13 05:06:04;;;;;;;;;;;;;;;9.28;49.46;95554.41;5114323;28;1909;-49
2022/04/13 05:08:30;;;;;;;;;;;;;;;9.80;48.01;95558.50;5114321;28;1099;-49
2022/04/13 05:10:56;;;;;;;;;;;;;;;9.91;46.91;95556.47;5114218;28;1048;-49
2022/04/13 05:13:22;;;;;;;;;;;;;;;9.47;48.96;95558.03;5114057;28;1048;-50
2022/04/13 05:15:49;;;;;;;;;;;;;;;8.53;52.10;95556.81;5114321;28;1043;-50
2022/04/13 05:18:15;;;;;;;;;;;;;;;7.87;54.02;95556.47;5113992;28;1032;-50
2022/04/13 05:20:41;;;;;;;;;;;;;;;7.40;55.28;95557.81;5113878;28;1181;-50
2022/04/13 05:23:07;;;;;;;;;;;;;;;7.07;56.40;95558.03;5112814;28;1032;-50
2022/04/13 05:25:33;;;;;;;;;;;;;;;7.01;55.98;95565.53;5113991;28;1909;-50
2022/04/13 05:28:00;;;;;;;;;;;;;;;7.01;55.81;95564.72;5112708;28;1000;-50
2022/04/13 05:30:26;;;;;;;;;;;;;;;7.09;55.54;95562.25;5112531;28;1676;-50
2022/04/13 05:32:56;;;;;;;;;;;;;;;7.16;55.18;95570.56;5112825;28;1028;-50
2022/04/13 05:35:23;;;;;;;;;;;;;;;7.15;54.81;95568.84;5112586;28;1479;-50
2022/04/13 05:37:49;;;;;;;;;;;;;;;7.41;55.82;95566.63;5113369;28;1052;-50
2022/04/13 05:40:17;;;;;;;;;;;;;;;7.67;54.87;95566.22;5113886;28;1800;-50
2022/04/13 05:42:45;;;;;;;;;;;;;;;7.71;54.88;95578.28;5115407;28;1626;-50
2022/04/13 05:45:14;;;;;;;;;;;;;;;7.79;54.83;95573.97;5116470;28;1906;-49
2022/04/13 05:47:42;;;;;;;;;;;;;;;7.96;55.20;95569.00;5116757;28;1035;-50
2022/04/13 05:50:09;;;;;;;;;;;;;;;8.21;55.07;95565.88;5118014;28;969;-50
2022/04/13 05:52:35;;;;;;;;;;;;;;;8.20;55.09;95561.50;5117817;28;1035;-50
2022/04/13 05:55:02;;;;;;;;;;;;;;;8.47;54.77;95572.53;5116649;28;1869;-50
2022/04/13 05:57:29;;;;;;;;;;;;;;;8.65;55.14;95575.34;5116495;28;1024;-49
2022/04/13 05:59:55;;;;;;;;;;;;;;;9.11;52.76;95580.00;5117685;28;1050;-50
2022/04/13 06:02:21;;;;;;;;;;;;;;;9.37;52.14;95571.38;5116511;28;1052;-49
2022/04/13 06:04:48;;;;;;;;;;;;;;;9.45;52.48;95571.53;5116610;28;1047;-49
2022/04/13 06:07:15;;;;;;;;;;;;;;;9.74;51.58;95573.28;5116339;28;1985;-49
2022/04/13 06:09:41;;;;;;;;;;;;;;;9.99;50.69;95574.44;5116407;28;968;-50
2022/04/13 06:12:08;;;;;;;;;;;;;;;10.12;50.06;95576.78;5116528;28;1032;-49
2022/04/13 06:14:34;;;;;;;;;;;;;;;10.27;49.79;95569.94;5117719;28;1511;-49
2022/04/13 06:17:01;;;;;;;;;;;;;;;10.52;50.19;95586.28;5099673;28;1507;-49
2022/04/13 06:19:28;;;;;;;;;;;;;;;10.80;51.05;95572.88;5117378;28;984;-49
2022/04/13 06:21:54;;;;;;;;;;;;;;;11.03;50.11;95565.25;5116097;28;1019;-49
2022/04/13 06:24:20;;;;;;;;;;;;;;;11.33;49.84;95572.03;5117267;28;1049;-49
2022/04/13 06:26:46;;;;;;;;;;;;;;;11.65;49.26;95574.09;5117307;28;1906;-49
2022/04/13 06:29:12;;;;;;;;;;;;;;;11.90;48.19;95571.59;5117306;28;1286;-49
2022/04/13 06:31:38;;;;;;;;;;;;;;;12.22;47.57;95576.28;5117154;28;1071;-49
2022/04/13 06:34:05;;;;;;;;;;;;;;;12.28;48.07;95569.44;5116150;28;986;-49
2022/04/13 06:36:31;;;;;;;;;;;;;;;12.51;46.89;95564.31;5099139;28;1603;-49
2022/04/13 06:38:57;;;;;;;;;;;;;;;12.93;45.08;95568.75;5117098;28;1008;-49
2022/04/13 06:41:23;;;;;;;;;;;;;;;13.29;44.95;95563.09;5117456;28;1056;-49
2022/04/13 06:43:52;;;;;;;;;;;;;;;13.57;43.20;95563.63;5117164;28;1040;-49
2022/04/13 06:46:18;;;;;;;;;;;;;;;14.47;42.32;95564.38;5116744;28;1909;-49
2022/04/13 06:48:44;;;;;;;;;;;;;;;15.97;39.50;95559.44;5116668;28;1091;-50
2022/04/13 06:51:11;;;;;;;;;;;;;;;18.36;34.99;95565.72;5116690;28;1068;-50
2022/04/13 06:53:37;;;;;;;;;;;;;;;21.10;30.95;95572.19;5115993;28;1052;-50
2022/04/13 06:56:04;;;;;;;;;;;;;;;23.41;27.11;95579.56;5116658;28;1036;-51
2022/04/13 06:58:30;;;;;;;;;;;;;;;24.92;24.71;95570.94;5116705;28;1017;-49
2022/04/13 07:00:57;;;;;;;;;;;;;;;26.28;24.39;95569.41;5116558;28;1059;-49
2022/04/13 07:03:25;;;;;;;;;;;;;;;26.83;22.79;95577.94;5115449;28;1566;-49
2022/04/13 07:05:52;;;;;;;;;;;;;;;27.18;22.19;95573.97;5116368;28;1999;-49
2022/04/13 07:08:20;;;;;;;;;;;;;;;27.74;21.46;95577.38;5114952;28;1605;-49
2022/04/13 07:10:50;;;;;;;;;;;;;;;28.22;21.38;95567.41;5114951;28;1575;-49
2022/04/13 07:13:16;;;;;;;;;;;;;;;28.13;21.06;95574.47;5116325;28;1024;-49
2022/04/13 07:15:43;;;;;;;;;;;;;;;26.71;22.21;95583.50;5116296;27;1242;-49
2022/04/13 07:18:10;;;;;;;;;;;;;;;25.20;24.73;95574.00;5098310;28;1558;-48
2022/04/13 07:20:38;;;;;;;;;;;;;;;22.72;26.47;95577.00;5115320;28;991;-48
2022/04/13 07:23:06;;;;;;;;;;;;;;;20.88;28.65;95562.69;5115153;28;1487;-48
2022/04/13 07:25:33;;;;;;;;;;;;;;;19.84;31.46;95563.28;5114755;28;1908;-48
2022/04/13 07:27:59;;;;;;;;;;;;;;;19.34;31.95;95572.81;5116012;28;1423;-48
2022/04/13 07:30:27;;;;;;;;;;;;;;;19.04;31.43;95568.53;5114708;28;1707;-48
2022/04/13 07:33:01;;;;;;;;;;;;;;;18.60;32.94;95567.09;5116099;28;1525;-48
2022/04/13 07:35:31;;;;;;;;;;;;;;;18.50;33.49;95569.34;5114735;28;2684;-48
2022/04/13 07:37:58;;;;;;;;;;;;;;;18.13;33.80;95563.28;5116267;28;1040;-48
2022/04/13 07:40:24;;;;;;;;;;;;;;;17.97;34.20;95561.72;5114685;28;1041;-48
2022/04/13 07:42:51;;;;;;;;;;;;;;;18.58;35.03;95568.34;5114536;28;1194;-48
2022/04/13 07:45:18;;;;;;;;;;;;;;;18.78;33.77;95555.72;5115625;28;2045;-48
2022/04/13 07:47:46;;;;;;;;;;;;;;;18.44;33.99;95560.16;5115396;28;1566;-49
2022/04/13 07:50:13;;;;;;;;;;;;;;;18.19;34.97;95559.78;5114606;28;1720;-48
2022/04/13 07:52:41;;;;;;;;;;;;;;;18.43;34.84;95554.94;5115560;28;1017;-48
2022/04/13 07:55:09;;;;;;;;;;;;;;;18.37;34.19;95555.75;5114367;28;1009;-48
2022/04/13 07:57:37;;;;;;;;;;;;;;;18.03;34.38;95552.81;5115549;28;1134;-48
2022/04/13 08:00:05;;;;;;;;;;;;;;;18.09;34.69;95549.31;5115638;28;2015;-48
2022/04/13 08:02:34;;;;;;;;;;;;;;;18.23;35.80;95552.09;5115726;28;1738;-48
2022/04/13 08:05:01;;;;;;;;;;;;;;;18.19;34.62;95557.06;5115037;28;1111;-48
2022/04/13 08:07:28;;;;;;;;;;;;;;;18.10;35.15;95552.88;5114831;28;1906;-48
2022/04/13 08:09:56;;;;;;;;;;;;;;;18.22;36.25;95551.28;5114189;28;1223;-48
2022/04/13 08:12:26;;;;;;;;;;;;;;;18.21;34.24;95546.91;5114117;28;1040;-48
2022/04/13 08:14:53;;;;;;;;;;;;;;;17.98;34.91;95540.91;5114213;28;1661;-48
2022/04/13 08:17:20;;;;;;;;;;;;;;;17.97;34.63;95548.19;5113735;28;2535;-48
2022/04/13 08:19:47;;;;;;;;;;;;;;;18.03;35.22;95542.00;5115050;28;1562;-48
2022/04/13 08:22:16;;;;;;;;;;;;;;;18.20;33.98;95547.09;5114119;28;1665;-48
2022/04/13 08:24:43;;;;;;;;;;;;;;;18.08;35.81;95547.66;5115183;28;943;-48
2022/04/13 08:27:11;;;;;;;;;;;;;;;18.18;35.46;95541.06;5113681;28;1908;-48
2022/04/13 08:29:39;;;;;;;;;;;;;;;18.28;35.42;95536.09;5113604;28;1970;-48
2022/04/13 08:32:05;;;;;;;;;;;;;;;18.35;35.80;95539.69;5114803;28;1126;-48
2022/04/13 08:34:32;;;;;;;;;;;;;;;18.80;36.48;95534.72;5114951;27;1003;-48
2022/04/13 08:37:00;;;;;;;;;;;;;;;18.75;36.19;95526.31;5113846;28;1515;-48
2022/04/13 08:39:27;;;;;;;;;;;;;;;18.80;35.11;95520.28;5113675;28;1698;-48
2022/04/13 08:41:57;;;;;;;;;;;;;;;18.96;34.57;95524.56;5113562;28;1559;-48
2022/04/13 08:44:29;;;;;;;;;;;;;;;18.99;34.38;95524.13;5115005;28;1075;-48
2022/04/13 08:47:00;;;;;;;;;;;;;;;19.21;34.87;95512.09;5114531;28;1984;-48
2022/04/13 08:49:26;;;;;;;;;;;;;;;19.51;34.00;95509.81;5114661;28;981;-48
2022/04/13 08:51:54;;;;;;;;;;;;;;;19.26;30.49;95515.03;5113252;28;1542;-48
2022/04/13 08:54:28;;;;;;;;;;;;;;;19.12;31.69;95510.59;5113479;28;1833;-48
2022/04/13 08:56:55;;;;;;;;;;;;;;;19.08;30.56;95509.34;5114450;28;1028;-48
2022/04/13 08:59:39;;;;;;;;;;;;;;;18.85;30.33;95509.72;5114459;28;1558;-48
2022/04/13 09:02:27;;;;;;;;;;;;;;;19.00;32.98;95501.44;5114711;28;1063;-48
2022/04/13 09:04:59;;;;;;;;;;;;;;;19.34;31.97;95496.91;5114541;28;1029;-48
2022/04/13 09:07:30;;;;;;;;;;;;;;;19.39;32.12;95497.09;5112955;28;1910;-48
2022/04/13 09:10:00;;;;;;;;;;;;;;;19.53;31.67;95485.22;5113229;28;1682;-48
2022/04/13 09:12:30;;;;;;;;;;;;;;;19.76;31.22;95492.13;5114434;28;1562;-48
2022/04/13 09:14:57;;;;;;;;;;;;;;;20.16;31.06;95484.72;5114410;28;1003;-48
2022/04/13 09:17:29;;;;;;;;;;;;;;;20.14;30.48;95486.00;5113892;28;1838;-48
2022/04/13 09:19:56;;;;;;;;;;;;;;;19.90;30.59;95485.66;5114362;28;1965;-48
2022/04/13 09:22:23;;;;;;;;;;;;;;;19.94;31.35;95477.88;5114032;28;1064;-48
2022/04/13 09:24:50;;;;;;;;;;;;;;;20.23;30.25;95485.56;5113813;28;2493;-48
2022/04/13 09:27:20;;;;;;;;;;;;;;;20.34;30.41;95480.53;5112695;28;1992;-48
2022/04/13 09:32:58;;;;;;;;;;;;;;;19.89;28.36;95471.22;5073359;28;1479;-48
2022/04/13 09:35:25;;;;;;;;;;;;;;;19.56;28.33;95470.38;5055958;28;1719;-48
2022/04/13 09:37:52;;;;;;;;;;;;;;;19.60;30.48;95461.63;5072126;28;2626;-48
2022/04/13 09:40:37;;;;;;;;;;;;;;;19.66;30.16;95458.09;5072418;28;1039;-48
2022/04/13 09:43:06;;;;;;;;;;;;;;;19.81;29.50;95463.31;5073640;28;973;-48
2022/04/13 09:45:34;;;;;;;;;;;;;;;19.83;30.24;95454.97;5073329;28;1906;-48
2022/04/13 09:48:04;;;;;;;;;;;;;;;20.04;30.32;95443.84;5073147;28;1064;-48
2022/04/13 09:50:31;;;;;;;;;;;;;;;20.20;30.24;95449.84;5073427;28;1060;-49
2022/04/13 09:53:03;;;;;;;;;;;;;;;20.30;30.08;95442.09;5071588;28;1561;-48
2022/04/13 09:55:32;;;;;;;;;;;;;;;20.29;30.23;95440.44;5072188;28;1448;-48
2022/04/13 09:58:07;;;;;;;;;;;;;;;20.48;29.65;95441.38;5072120;28;1130;-48
2022/04/13 10:00:36;;;;;;;;;;;;;;;20.42;29.82;95437.66;5071968;28;1037;-48
2022/04/13 10:03:22;;;;;;;;;;;;;;;20.46;30.62;95427.19;5055200;28;2476;-48
2022/04/13 10:05:50;;;;;;;;;;;;;;;20.42;29.21;95428.69;5073339;28;1902;-48
2022/04/13 10:08:22;;;;;;;;;;;;;;;20.39;30.16;95429.94;5073149;28;1723;-48
2022/04/13 10:10:49;;;;;;;;;;;;;;;20.19;28.42;95424.59;5072144;28;1464;-48
2022/04/13 10:13:31;;;;;;;;;;;;;;;20.03;29.14;95425.06;5073236;28;1036;-48
2022/04/13 10:15:58;;;;;;;;;;;;;;;20.02;29.58;95421.53;5072896;28;1043;-48
2022/04/13 10:18:25;;;;;;;;;;;;;;;20.00;29.02;95415.47;5072192;28;1570;-48
2022/04/13 10:20:51;;;;;;;;;;;;;;;19.97;29.58;95413.16;5073106;28;1007;-48
2022/04/13 10:23:17;;;;;;;;;;;;;;;19.91;29.62;95410.50;5072098;28;981;-48
2022/04/13 10:25:44;;;;;;;;;;;;;;;19.77;28.72;95406.97;5071862;28;1902;-48
2022/04/13 10:28:12;;;;;;;;;;;;;;;19.73;30.78;95412.00;5073202;28;1012;-48
2022/04/13 10:30:42;;;;;;;;;;;;;;;19.82;29.08;95418.03;5078551;28;1391;-48
2022/04/13 10:33:10;;;;;;;;;;;;;;;19.55;28.88;95399.06;5117374;28;969;-48
2022/04/13 10:35:40;;;;;;;;;;;;;;;19.51;31.65;95401.34;5117317;28;1754;-48
2022/04/13 10:38:07;;;;;;;;;;;;;;;19.46;29.10;95403.03;5117150;28;1118;-48
2022/04/13 10:40:35;;;;;;;;;;;;;;;19.52;29.48;95399.50;5117277;28;1649;-48
2022/04/13 10:43:03;;;;;;;;;;;;;;;19.57;30.72;95391.53;5116964;28;1016;-48
2022/04/13 10:45:33;;;;;;;;;;;;;;;19.60;30.22;95391.13;5115584;28;2419;-48
2022/04/13 10:47:59;;;;;;;;;;;;;;;19.68;30.26;95396.31;5116896;28;1673;-48
2022/04/13 10:50:58;;;;;;;;;;;;;;;19.83;30.77;95393.41;5117211;28;944;-48
2022/04/13 10:53:27;;;;;;;;;;;;;;;19.88;30.60;95390.88;5072204;28;1201;-48
2022/04/13 10:56:04;;;;;;;;;;;;;;;19.96;30.96;95386.28;5117024;28;961;-48
2022/04/13 10:58:49;;;;;;;;;;;;;;;20.03;29.89;95378.91;5116658;27;1099;-48
2022/04/13 11:01:17;;;;;;;;;;;;;;;20.04;29.52;95381.41;5116499;28;1113;-48
2022/04/13 11:03:44;;;;;;;;;;;;;;;20.05;29.37;95376.81;5116878;28;1019;-49
2022/04/13 11:06:11;;;;;;;;;;;;;;;19.94;29.07;95367.50;5116775;28;1902;-48
2022/04/13 11:09:00;;;;;;;;;;;;;;;19.96;29.79;95365.38;5116454;28;1036;-51
2022/04/13 11:11:27;;;;;;;;;;;;;;;20.01;28.93;95359.31;5116779;28;1778;-48
2022/04/13 11:13:53;;;;;;;;;;;;;;;19.89;29.95;95356.44;5116417;28;1087;-48
2022/04/13 11:16:20;;;;;;;;;;;;;;;19.92;29.66;95361.44;5116209;28;925;-48
2022/04/13 11:19:05;;;;;;;;;;;;;;;19.91;30.24;95351.63;5116662;27;983;-48
2022/04/13 11:21:31;;;;;;;;;;;;;;;19.97;29.24;95353.47;5116214;28;1011;-48
2022/04/13 11:23:58;;;;;;;;;;;;;;;19.97;29.90;95348.03;5116182;28;1083;-49
2022/04/13 11:26:27;;;;;;;;;;;;;;;20.05;29.85;95338.81;5115092;28;1890;-49
2022/04/13 11:29:12;;;;;;;;;;;;;;;20.02;29.38;95344.69;5116039;28;1024;-49
2022/04/13 11:31:56;;;;;;;;;;;;;;;20.06;29.38;95340.50;5115946;28;1087;-48
2022/04/13 11:34:29;;;;;;;;;;;;;;;19.95;29.21;95339.28;5116234;28;1052;-49
2022/04/13 11:36:59;;;;;;;;;;;;;;;19.88;29.60;95339.34;5116142;28;964;-49
2022/04/13 11:39:45;;;;;;;;;;;;;;;19.83;29.13;95338.31;5115950;28;1051;-49
2022/04/13 11:42:14;;;;;;;;;;;;;;;19.80;30.09;95336.00;5115835;28;1056;-49
2022/04/13 11:44:47;;;;;;;;;;;;;;;19.88;28.93;95331.19;5116070;28;1000;-49
2022/04/13 11:47:18;;;;;;;;;;;;;;;19.88;28.53;95330.34;5115957;28;1906;-49
2022/04/13 11:50:04;;;;;;;;;;;;;;;19.86;28.79;95333.28;5115689;28;1032;-49
2022/04/13 11:52:49;;;;;;;;;;;;;;;19.77;27.44;95320.16;5115957;28;1067;-49
2022/04/13 11:55:16;;;;;;;;;;;;;;;19.73;27.65;95317.06;5115533;27;1119;-48
2022/04/13 11:58:02;;;;;;;;;;;;;;;19.80;29.44;95317.84;5115519;28;1092;-49
2022/04/13 12:00:43;;;;;;;;;;;;;;;19.89;29.37;95319.28;5115333;28;1115;-48
2022/04/13 12:03:18;;;;;;;;;;;;;;;19.87;28.12;95315.13;5115401;28;961;-49
2022/04/13 12:05:46;;;;;;;;;;;;;;;19.83;28.23;95313.88;5115336;28;1996;-48
2022/04/13 12:08:12;;;;;;;;;;;;;;;19.84;28.29;95299.25;5115303;28;1202;-48
2022/04/13 12:10:43;;;;;;;;;;;;;;;19.78;28.64;95298.25;5115391;28;957;-48
2022/04/13 12:13:09;;;;;;;;;;;;;;;19.80;29.25;95290.72;5115610;28;1007;-48
2022/04/13 12:15:44;;;;;;;;;;;;;;;19.86;28.47;95287.16;5115171;28;988;-48
2022/04/13 12:18:11;;;;;;;;;;;;;;;19.86;27.61;95280.88;5115137;28;1028;-49
2022/04/13 12:20:37;;;;;;;;;;;;;;;19.83;27.93;95279.44;5115335;28;973;-48
2022/04/13 12:23:16;;;;;;;;;;;;;;;19.80;29.05;95273.63;5115039;28;1004;-48
2022/04/13 12:25:46;;;;;;;;;;;;;;;19.70;28.41;95266.72;5113894;28;1922;-49
2022/04/13 12:28:13;;;;;;;;;;;;;;;19.75;28.42;95274.28;5114953;28;1141;-48
2022/04/13 12:30:39;;;;;;;;;;;;;;;19.68;26.34;95273.44;5114590;28;1076;-49
2022/04/13 12:33:13;;;;;;;;;;;;;;;19.50;27.32;95263.25;5114842;28;1015;-48
2022/04/13 12:35:56;;;;;;;;;;;;;;;19.49;26.98;95254.31;5115146;28;1039;-49
2022/04/13 12:38:29;;;;;;;;;;;;;;;19.51;27.92;95252.22;5114846;28;953;-49
2022/04/13 12:41:15;;;;;;;;;;;;;;;19.62;27.25;95248.00;5114652;27;1016;-49
2022/04/13 12:43:42;;;;;;;;;;;;;;;19.64;26.20;95240.47;5114689;28;1012;-48
2022/04/13 12:46:08;;;;;;;;;;;;;;;19.64;28.14;95231.53;5114619;28;1991;-49
2022/04/13 12:48:34;;;;;;;;;;;;;;;19.82;27.80;95237.06;5114648;28;1037;-49
2022/04/13 12:51:01;;;;;;;;;;;;;;;19.92;27.88;95238.47;5114162;28;1075;-49
2022/04/13 12:53:28;;;;;;;;;;;;;;;19.95;28.23;95233.47;5114227;28;1035;-49
2022/04/13 12:55:55;;;;;;;;;;;;;;;20.05;27.43;95230.25;5114560;28;1032;-49
2022/04/13 12:58:22;;;;;;;;;;;;;;;20.09;28.51;95231.53;5114617;28;1047;-49
2022/04/13 13:00:49;;;;;;;;;;;;;;;20.06;27.62;95227.34;5114229;28;1020;-49
2022/04/13 13:03:16;;;;;;;;;;;;;;;19.95;26.97;95222.59;5114613;28;945;-49
2022/04/13 13:05:42;;;;;;;;;;;;;;;19.87;27.43;95220.16;5114473;28;1901;-49
2022/04/13 13:08:08;;;;;;;;;;;;;;;19.85;27.98;95228.50;5114502;28;1060;-49
2022/04/13 13:10:34;;;;;;;;;;;;;;;19.80;26.65;95216.66;5114459;28;1061;-49
2022/04/13 13:13:11;;;;;;;;;;;;;;;19.73;27.09;95230.25;5114465;28;958;-49
2022/04/13 13:15:38;;;;;;;;;;;;;;;19.59;25.73;95215.88;5114231;28;995;-49